createdAt,value
2024-02-15T00:02:24.060Z,99504.91
2024-02-15T00:04:50.948Z,99504.36
2024-02-15T00:07:18.051Z,99501.02
2024-02-15T00:09:44.741Z,99501.14
2024-02-15T00:12:11.512Z,99501.85
2024-02-15T00:14:38.801Z,99497.48
2024-02-15T00:17:05.709Z,99497.89
2024-02-15T00:19:32.518Z,99501.08
2024-02-15T00:21:59.337Z,99504.98
2024-02-15T00:24:25.992Z,99503.62
2024-02-15T00:26:54.149Z,99500.35
2024-02-15T00:29:20.863Z,99503.02
2024-02-15T00:31:47.573Z,99511.64
2024-02-15T00:34:14.802Z,99515.16
2024-02-15T00:36:44.869Z,99512.69
2024-02-15T00:39:13.337Z,99511.14
2024-02-15T00:41:43.820Z,99511.02
2024-02-15T00:44:13.520Z,99512.75
2024-02-15T00:46:41.917Z,99513.25
2024-02-15T00:49:08.834Z,99514.15
2024-02-15T00:51:36.479Z,99512.52
2024-02-15T00:54:03.969Z,99511.12
2024-02-15T00:56:32.625Z,99507.10
2024-02-15T00:59:03.908Z,99504.48
2024-02-15T01:01:31.077Z,99503.77
2024-02-15T01:03:57.892Z,99502.17
2024-02-15T01:06:24.721Z,99500.79
2024-02-15T01:08:52.139Z,99499.95
2024-02-15T01:11:18.973Z,99494.73
2024-02-15T01:13:46.082Z,99494.73
2024-02-15T01:16:14.009Z,99494.22
2024-02-15T01:18:40.837Z,99489.26
2024-02-15T01:21:08.017Z,99493.23
2024-02-15T01:23:37.286Z,99496.02
2024-02-15T01:26:05.382Z,99492.55
2024-02-15T01:28:32.593Z,99490.08
2024-02-15T01:30:59.214Z,99492.23
2024-02-15T01:33:26.056Z,99497.45
2024-02-15T01:35:52.881Z,99494.74
2024-02-15T01:38:19.647Z,99492.42
2024-02-15T01:40:48.055Z,99487.98
2024-02-15T01:43:15.059Z,99487.95
2024-02-15T01:45:42.254Z,99484.77
2024-02-15T01:48:10.714Z,99482.63
2024-02-15T01:50:37.510Z,99482.41
2024-02-15T01:53:08.720Z,99480.29
2024-02-15T01:55:35.840Z,99479.61
2024-02-15T01:58:05.347Z,99475.79
2024-02-15T02:00:32.079Z,99473.52
2024-02-15T02:03:03.146Z,99469.85
2024-02-15T02:05:31.526Z,99465.23
2024-02-15T02:08:02.055Z,99464.52
2024-02-15T02:10:33.189Z,99457.15
2024-02-15T02:13:03.133Z,99448.57
2024-02-15T02:15:32.031Z,99445.95
2024-02-15T02:17:59.730Z,99447.77
2024-02-15T02:20:27.102Z,99455.29
2024-02-15T02:22:55.941Z,99456.66
2024-02-15T02:25:26.825Z,99459.98
2024-02-15T02:27:54.070Z,99458.14
2024-02-15T02:30:22.669Z,99457.21
2024-02-15T02:32:49.514Z,99454.74
2024-02-15T02:35:21.064Z,99451.20
2024-02-15T02:37:47.754Z,99446.79
2024-02-15T02:40:14.516Z,99451.27
2024-02-15T02:42:51.648Z,99453.17
2024-02-15T02:45:20.346Z,99451.52
2024-02-15T02:47:48.593Z,99449.41
2024-02-15T02:50:16.380Z,99448.67
2024-02-15T02:52:43.064Z,99446.55
2024-02-15T02:55:09.775Z,99445.66
2024-02-15T02:57:40.229Z,99445.13
2024-02-15T03:00:13.214Z,99448.38
2024-02-15T03:02:40.196Z,99447.73
2024-02-15T03:05:08.956Z,99446.63
2024-02-15T03:07:37.049Z,99441.63
2024-02-15T03:10:05.389Z,99443.85
2024-02-15T03:12:32.474Z,99443.77
2024-02-15T03:14:59.288Z,99443.13
2024-02-15T03:17:26.508Z,99441.31
2024-02-15T03:19:53.295Z,99439.15
2024-02-15T03:22:20.009Z,99439.29
2024-02-15T03:24:46.615Z,99442.60
2024-02-15T03:27:13.345Z,99445.59
2024-02-15T03:29:40.183Z,99448.59
2024-02-15T03:32:07.119Z,99447.54
2024-02-15T03:34:33.968Z,99445.09
2024-02-15T03:37:01.200Z,99448.80
2024-02-15T03:39:28.039Z,99457.97
2024-02-15T03:41:56.475Z,99459.38
2024-02-15T03:44:26.414Z,99461.06
2024-02-15T03:47:01.136Z,99462.66
2024-02-15T03:49:28.022Z,99464.95
2024-02-15T03:51:55.539Z,99464.80
2024-02-15T03:54:23.750Z,99465.16
2024-02-15T03:56:55.182Z,99465.33
2024-02-15T03:59:32.819Z,99466.41
2024-02-15T04:02:03.843Z,99461.39
2024-02-15T04:04:30.912Z,99463.93
2024-02-15T04:06:58.780Z,99463.41
2024-02-15T04:09:25.786Z,99464.18
2024-02-15T04:11:53.441Z,99462.33
2024-02-15T04:14:20.257Z,99461.36
2024-02-15T04:16:47.027Z,99458.06
2024-02-15T04:19:14.248Z,99457.36
2024-02-15T04:21:41.083Z,99457.77
2024-02-15T04:24:07.872Z,99456.58
2024-02-15T04:26:34.856Z,99452.06
2024-02-15T04:29:01.558Z,99452.09
2024-02-15T04:31:28.370Z,99447.22
2024-02-15T04:33:56.192Z,99450.44
2024-02-15T04:36:26.695Z,99453.66
2024-02-15T04:38:53.869Z,99456.36
2024-02-15T04:41:23.477Z,99455.90
2024-02-15T04:43:51.136Z,99460.70
2024-02-15T04:46:18.071Z,99459.08
2024-02-15T04:48:44.859Z,99464.25
2024-02-15T04:51:11.734Z,99463.83
2024-02-15T04:53:39.728Z,99466.52
2024-02-15T04:56:14.350Z,99467.86
2024-02-15T04:58:47.948Z,99475.08
2024-02-15T05:01:15.929Z,99478.58
2024-02-15T05:03:46.292Z,99482.17
2024-02-15T05:06:13.219Z,99479.73
2024-02-15T05:08:43.182Z,99481.66
2024-02-15T05:11:18.267Z,99480.75
2024-02-15T05:13:45.615Z,99480.64
2024-02-15T05:16:16.578Z,99479.67
2024-02-15T05:18:43.520Z,99479.94
2024-02-15T05:21:10.549Z,99478.06
2024-02-15T05:23:40.227Z,99479.49
2024-02-15T05:26:07.210Z,99475.36
2024-02-15T05:28:34.072Z,99477.26
2024-02-15T05:31:11.829Z,99478.21
2024-02-15T05:33:44.643Z,99477.05
2024-02-15T05:36:12.326Z,99476.91
2024-02-15T05:38:39.866Z,99473.66
2024-02-15T05:41:08.300Z,99474.98
2024-02-15T05:43:37.990Z,99474.77
2024-02-15T05:46:07.066Z,99482.61
2024-02-15T05:48:37.287Z,99482.19
2024-02-15T05:51:05.321Z,99482.27
2024-02-15T05:53:38.642Z,99479.05
2024-02-15T05:56:07.780Z,99476.64
2024-02-15T05:58:36.061Z,99478.06
2024-02-15T06:01:07.030Z,99480.96
2024-02-15T06:03:39.195Z,99480.36
2024-02-15T06:06:10.031Z,99484.70
2024-02-15T06:08:39.920Z,99486.39
2024-02-15T06:11:07.576Z,99489.62
2024-02-15T06:13:34.327Z,99490.83
2024-02-15T06:16:01.642Z,99487.83
2024-02-15T06:18:29.885Z,99489.26
2024-02-15T06:20:58.582Z,99491.52
2024-02-15T06:23:28.143Z,99491.85
2024-02-15T06:25:57.156Z,99496.27
2024-02-15T06:28:42.632Z,99495.23
2024-02-15T06:31:29.779Z,99499.11
2024-02-15T06:34:16.413Z,99500.02
2024-02-15T06:37:19.014Z,99497.27
2024-02-15T06:39:46.312Z,99495.13
2024-02-15T06:42:21.699Z,99492.87
2024-02-15T06:44:49.416Z,99493.08
2024-02-15T06:47:25.626Z,99493.58
2024-02-15T06:49:55.845Z,99496.72
2024-02-15T06:52:23.663Z,99496.83
2024-02-15T06:54:51.900Z,99496.35
2024-02-15T06:57:19.032Z,99497.14
2024-02-15T06:59:47.627Z,99496.34
2024-02-15T07:02:14.539Z,99495.44
2024-02-15T07:04:42.309Z,99498.19
2024-02-15T07:07:09.104Z,99497.44
2024-02-15T07:09:36.068Z,99496.88
2024-02-15T07:12:03.041Z,99496.84
2024-02-15T07:14:30.007Z,99496.32
2024-02-15T07:17:04.735Z,99498.95
2024-02-15T07:19:49.730Z,99494.20
2024-02-15T07:22:17.272Z,99495.91
2024-02-15T07:24:44.628Z,99500.18
2024-02-15T07:27:12.195Z,99501.77
2024-02-15T07:29:39.287Z,99505.21
2024-02-15T07:32:06.767Z,99508.36
2024-02-15T07:34:34.887Z,99510.46
2024-02-15T07:37:03.073Z,99510.34
2024-02-15T07:39:30.105Z,99509.23
2024-02-15T07:42:05.126Z,99508.79
2024-02-15T07:44:33.034Z,99504.25
2024-02-15T07:47:00.978Z,99505.86
2024-02-15T07:49:28.019Z,99508.94
2024-02-15T07:51:55.025Z,99511.41
2024-02-15T07:54:22.348Z,99515.23
2024-02-15T07:56:50.801Z,99516.94
2024-02-15T07:59:17.715Z,99516.84
2024-02-15T08:01:46.465Z,99517.53
2024-02-15T08:04:14.589Z,99514.64
2024-02-15T08:06:43.057Z,99507.88
2024-02-15T08:09:19.017Z,99512.45
2024-02-15T08:11:46.167Z,99510.85
2024-02-15T08:14:14.625Z,99511.07
2024-02-15T08:16:41.933Z,99506.16
2024-02-15T08:19:09.167Z,99507.00
2024-02-15T08:21:38.054Z,99508.27
2024-02-15T08:24:07.753Z,99509.80
2024-02-15T08:26:43.279Z,99508.32
2024-02-15T08:29:14.339Z,99509.80
2024-02-15T08:31:42.039Z,99509.39
2024-02-15T08:34:11.795Z,99514.67
2024-02-15T08:36:40.343Z,99517.80
2024-02-15T08:39:08.997Z,99512.76
2024-02-15T08:41:36.051Z,99512.17
2024-02-15T08:44:06.561Z,99513.58
2024-02-15T08:46:33.412Z,99515.38
2024-02-15T08:49:01.352Z,99516.18
2024-02-15T08:51:30.894Z,99519.13
2024-02-15T08:53:58.975Z,99518.89
2024-02-15T08:56:26.438Z,99518.09
2024-02-15T08:58:53.058Z,99519.26
2024-02-15T09:01:20.142Z,99517.21
2024-02-15T09:03:47.244Z,99519.39
2024-02-15T09:06:16.392Z,99527.32
2024-02-15T09:08:43.398Z,99525.96
2024-02-15T09:11:12.897Z,99526.39
2024-02-15T09:13:39.724Z,99527.52
2024-02-15T09:16:12.390Z,99525.59
2024-02-15T09:18:45.574Z,99526.69
2024-02-15T09:21:20.130Z,99522.19
2024-02-15T09:23:48.074Z,99517.30
2024-02-15T09:26:14.914Z,99513.67
2024-02-15T09:28:41.817Z,99509.13
2024-02-15T09:31:08.758Z,99507.70
2024-02-15T09:33:35.641Z,99502.90
2024-02-15T09:36:03.123Z,99504.11
2024-02-15T09:38:30.338Z,99506.66
2024-02-15T09:40:57.750Z,99508.86
2024-02-15T09:43:26.763Z,99508.66
2024-02-15T09:45:53.788Z,99512.02
2024-02-15T09:48:25.954Z,99510.70
2024-02-15T09:50:56.040Z,99514.38
2024-02-15T09:53:26.300Z,99514.77
2024-02-15T09:56:04.737Z,99517.02
2024-02-15T09:58:34.922Z,99520.87
2024-02-15T10:01:06.805Z,99518.43
2024-02-15T10:03:34.306Z,99513.22
2024-02-15T10:06:01.450Z,99514.52
2024-02-15T10:08:30.240Z,99512.00
2024-02-15T10:11:10.459Z,99508.63
2024-02-15T10:13:39.968Z,99508.17
2024-02-15T10:16:18.821Z,99505.54
2024-02-15T10:18:47.753Z,99495.42
2024-02-15T10:21:35.843Z,99491.27
2024-02-15T10:24:07.696Z,99493.56
2024-02-15T10:26:38.415Z,99491.88
2024-02-15T10:29:10.241Z,99494.11
2024-02-15T10:31:52.804Z,99493.43
2024-02-15T10:34:21.754Z,99494.66
2024-02-15T10:36:50.503Z,99493.08
2024-02-15T10:39:21.910Z,99493.79
2024-02-15T10:41:53.692Z,99495.55
2024-02-15T10:44:23.881Z,99494.80
2024-02-15T10:46:53.820Z,99494.50
2024-02-15T10:49:24.382Z,99488.66
2024-02-15T10:51:56.911Z,99490.02
2024-02-15T10:54:47.258Z,99489.28
2024-02-15T10:57:22.943Z,99486.41
2024-02-15T10:59:59.701Z,99484.60
2024-02-15T11:02:32.218Z,99479.77
2024-02-15T11:05:06.896Z,99476.52
2024-02-15T11:07:34.406Z,99473.23
2024-02-15T11:10:05.357Z,99472.76
2024-02-15T11:12:32.400Z,99467.74
2024-02-15T11:14:59.690Z,99466.79
2024-02-15T11:17:43.253Z,99465.91
2024-02-15T11:20:14.251Z,99461.61
2024-02-15T11:22:43.275Z,99458.19
2024-02-15T11:25:12.243Z,99454.36
2024-02-15T11:27:41.043Z,99455.30
2024-02-15T11:30:13.072Z,99456.46
2024-02-15T11:32:52.651Z,99458.02
2024-02-15T11:35:23.798Z,99460.05
2024-02-15T11:37:53.503Z,99459.61
2024-02-15T11:40:41.873Z,99455.69
2024-02-15T11:43:11.429Z,99448.85
2024-02-15T11:45:41.590Z,99452.20
2024-02-15T11:48:13.391Z,99446.98
2024-02-15T11:50:43.188Z,99446.27
2024-02-15T11:53:11.171Z,99444.77
2024-02-15T11:55:42.768Z,99440.75
2024-02-15T11:58:10.924Z,99436.48
2024-02-15T12:00:59.129Z,99437.27
2024-02-15T12:03:52.889Z,99434.98
2024-02-15T12:06:48.414Z,99431.09
2024-02-15T12:09:38.014Z,99429.14
2024-02-15T12:12:24.765Z,99429.71
2024-02-15T12:15:20.692Z,99430.13
2024-02-15T12:18:06.459Z,99428.73
2024-02-15T12:20:34.830Z,99432.42
2024-02-15T12:23:01.928Z,99429.99
2024-02-15T12:25:29.074Z,99429.28
2024-02-15T12:27:57.128Z,99427.90
2024-02-15T12:30:25.982Z,99429.00
2024-02-15T12:33:11.421Z,99426.02
2024-02-15T12:35:38.868Z,99422.14
2024-02-15T12:38:05.836Z,99422.63
2024-02-15T12:40:35.253Z,99424.50
2024-02-15T12:43:09.009Z,99422.84
2024-02-15T12:45:38.629Z,99426.98
2024-02-15T12:48:07.242Z,99423.58
2024-02-15T12:50:35.137Z,99418.02
2024-02-15T12:53:06.499Z,99414.23
2024-02-15T12:55:35.504Z,99416.33
2024-02-15T12:58:04.599Z,99415.30
2024-02-15T13:00:33.934Z,99412.62
2024-02-15T13:03:05.705Z,99411.98
2024-02-15T13:05:33.566Z,99417.65
2024-02-15T13:08:04.000Z,99421.34
2024-02-15T13:10:32.159Z,99420.58
2024-02-15T13:12:59.018Z,99420.95
2024-02-15T13:15:33.357Z,99410.80
2024-02-15T13:18:04.862Z,99411.10
2024-02-15T13:20:36.175Z,99409.23
2024-02-15T13:23:08.698Z,99406.34
2024-02-15T13:25:40.275Z,99408.39
2024-02-15T13:28:09.445Z,99405.69
2024-02-15T13:30:36.711Z,99401.48
2024-02-15T13:33:04.492Z,99403.52
2024-02-15T13:35:32.926Z,99404.05
2024-02-15T13:37:59.952Z,99405.19
2024-02-15T13:40:28.704Z,99407.64
2024-02-15T13:42:59.073Z,99412.96
2024-02-15T13:45:37.968Z,99410.39
2024-02-15T13:48:05.612Z,99413.97
2024-02-15T13:50:33.240Z,99410.77
2024-02-15T13:53:00.241Z,99408.38
2024-02-15T13:55:27.557Z,99406.84
2024-02-15T13:58:00.388Z,99406.34
2024-02-15T14:00:30.798Z,99410.39
2024-02-15T14:02:59.479Z,99408.52
2024-02-15T14:05:30.770Z,99409.55
2024-02-15T14:08:00.056Z,99411.25
2024-02-15T14:10:38.121Z,99410.21
2024-02-15T14:13:09.680Z,99414.38
2024-02-15T14:15:38.749Z,99414.16
2024-02-15T14:18:19.074Z,99416.95
2024-02-15T14:20:48.148Z,99416.98
2024-02-15T14:23:15.992Z,99417.39
2024-02-15T14:25:49.537Z,99420.06
2024-02-15T14:28:16.917Z,99423.15
2024-02-15T14:31:02.745Z,99425.17
2024-02-15T14:33:33.942Z,99424.79
2024-02-15T14:36:05.051Z,99425.78
2024-02-15T14:38:34.639Z,99422.30
2024-02-15T14:41:02.999Z,99420.02
2024-02-15T14:43:30.349Z,99420.25
2024-02-15T14:45:58.586Z,99423.05
2024-02-15T14:48:26.550Z,99420.95
2024-02-15T14:50:56.452Z,99417.27
2024-02-15T14:53:23.469Z,99417.05
2024-02-15T14:55:52.234Z,99419.14
2024-02-15T14:58:20.664Z,99419.59
2024-02-15T15:00:48.844Z,99420.05
2024-02-15T15:03:17.377Z,99421.34
2024-02-15T15:06:04.106Z,99426.15
2024-02-15T15:08:50.518Z,99428.52
2024-02-15T15:11:36.647Z,99432.09
2024-02-15T15:14:05.072Z,99433.71
2024-02-15T15:16:32.101Z,99439.70
2024-02-15T15:18:59.404Z,99438.63
2024-02-15T15:21:28.157Z,99442.41
2024-02-15T15:23:55.263Z,99443.05
2024-02-15T15:26:22.685Z,99449.23
2024-02-15T15:28:50.312Z,99449.75
2024-02-15T15:31:17.838Z,99447.06
2024-02-15T15:33:45.162Z,99445.74
2024-02-15T15:36:12.712Z,99442.77
2024-02-15T15:38:40.041Z,99438.89
2024-02-15T15:41:10.431Z,99443.94
2024-02-15T15:43:40.889Z,99443.55
2024-02-15T15:46:16.030Z,99442.94
2024-02-15T15:48:46.954Z,99444.28
2024-02-15T15:51:14.710Z,99445.09
2024-02-15T15:53:42.880Z,99443.54
2024-02-15T15:56:10.483Z,99442.29
2024-02-15T15:58:37.366Z,99439.98
2024-02-15T16:01:04.853Z,99439.89
2024-02-15T16:03:32.013Z,99441.80
2024-02-15T16:05:58.965Z,99440.78
2024-02-15T16:08:27.398Z,99442.02
2024-02-15T16:10:59.187Z,99441.73
2024-02-15T16:13:44.943Z,99440.02
2024-02-15T16:16:12.805Z,99438.96
2024-02-15T16:18:39.755Z,99439.13
2024-02-15T16:21:07.311Z,99431.81
2024-02-15T16:23:34.359Z,99435.28
2024-02-15T16:26:01.511Z,99437.45
2024-02-15T16:28:29.705Z,99442.36
2024-02-15T16:30:56.691Z,99443.83
2024-02-15T16:33:23.584Z,99446.45
2024-02-15T16:35:50.751Z,99444.59
2024-02-15T16:38:17.812Z,99446.64
2024-02-15T16:40:45.300Z,99450.07
2024-02-15T16:43:12.743Z,99451.48
2024-02-15T16:45:44.205Z,99453.64
2024-02-15T16:48:12.271Z,99456.94
2024-02-15T16:50:42.134Z,99460.12
2024-02-15T16:53:13.131Z,99462.64
2024-02-15T16:55:42.057Z,99467.96
2024-02-15T16:58:11.035Z,99468.98
2024-02-15T17:00:39.194Z,99468.77
2024-02-15T17:03:08.983Z,99467.84
2024-02-15T17:05:35.999Z,99473.91
2024-02-15T17:08:06.773Z,99475.99
2024-02-15T17:10:35.449Z,99474.27
2024-02-15T17:13:02.751Z,99474.98
2024-02-15T17:15:30.379Z,99472.95
2024-02-15T17:17:58.108Z,99471.03
2024-02-15T17:20:25.682Z,99470.35
2024-02-15T17:22:52.428Z,99470.95
2024-02-15T17:25:24.509Z,99468.58
2024-02-15T17:27:59.443Z,99470.40
2024-02-15T17:30:26.724Z,99475.58
2024-02-15T17:32:53.917Z,99476.98
2024-02-15T17:35:21.387Z,99479.48
2024-02-15T17:37:48.108Z,99478.29
2024-02-15T17:40:14.933Z,99469.71
2024-02-15T17:42:42.995Z,99466.90
2024-02-15T17:45:13.583Z,99461.30
2024-02-15T17:47:42.613Z,99460.02
2024-02-15T17:50:10.992Z,99455.55
2024-02-15T17:52:38.558Z,99451.45
2024-02-15T17:55:06.874Z,99447.56
2024-02-15T17:57:33.770Z,99448.85
2024-02-15T18:00:00.591Z,99455.77
2024-02-15T18:02:28.866Z,99460.05
2024-02-15T18:04:55.843Z,99466.08
2024-02-15T18:07:22.762Z,99464.55
2024-02-15T18:09:51.742Z,99464.75
2024-02-15T18:12:22.894Z,99458.98
2024-02-15T18:14:51.104Z,99458.52
2024-02-15T18:17:17.947Z,99463.65
2024-02-15T18:19:49.918Z,99464.36
2024-02-15T18:22:16.882Z,99467.73
2024-02-15T18:24:51.952Z,99466.17
2024-02-15T18:27:23.392Z,99466.20
2024-02-15T18:29:50.758Z,99468.67
2024-02-15T18:32:18.561Z,99471.83
2024-02-15T18:34:49.695Z,99472.73
2024-02-15T18:37:25.937Z,99471.70
2024-02-15T18:39:57.219Z,99470.02
2024-02-15T18:42:26.195Z,99467.91
2024-02-15T18:44:53.153Z,99469.73
2024-02-15T18:47:22.182Z,99467.80
2024-02-15T18:50:00.066Z,99469.95
2024-02-15T18:52:28.665Z,99468.80
2024-02-15T18:54:59.474Z,99461.52
2024-02-15T18:57:27.720Z,99456.85
2024-02-15T18:59:56.333Z,99455.68
2024-02-15T19:02:23.313Z,99455.95
2024-02-15T19:04:53.185Z,99453.79
2024-02-15T19:07:20.192Z,99458.41
2024-02-15T19:09:47.321Z,99459.91
2024-02-15T19:12:14.440Z,99464.90
2024-02-15T19:14:43.231Z,99466.09
2024-02-15T19:17:10.119Z,99471.38
2024-02-15T19:19:37.751Z,99469.92
2024-02-15T19:22:04.572Z,99467.58
2024-02-15T19:24:31.426Z,99458.02
2024-02-15T19:26:58.397Z,99454.34
2024-02-15T19:29:26.362Z,99453.56
2024-02-15T19:31:53.068Z,99450.79
2024-02-15T19:34:21.442Z,99441.89
2024-02-15T19:36:53.754Z,99441.42
2024-02-15T19:39:24.716Z,99440.04
2024-02-15T19:41:52.560Z,99441.81
2024-02-15T19:44:20.127Z,99443.69
2024-02-15T19:46:47.368Z,99439.74
2024-02-15T19:49:14.322Z,99433.69
2024-02-15T19:51:41.158Z,99436.02
2024-02-15T19:54:07.970Z,99434.83
2024-02-15T19:56:34.927Z,99432.23
2024-02-15T19:59:02.269Z,99430.05
2024-02-15T20:01:29.409Z,99429.05
2024-02-15T20:03:56.705Z,99434.42
2024-02-15T20:06:25.246Z,99434.36
2024-02-15T20:08:57.933Z,99431.66
2024-02-15T20:11:28.458Z,99431.23
2024-02-15T20:13:58.557Z,99431.21
2024-02-15T20:16:25.313Z,99432.99
2024-02-15T20:18:52.313Z,99433.54
2024-02-15T20:21:20.845Z,99430.96
2024-02-15T20:23:52.150Z,99433.46
2024-02-15T20:26:20.091Z,99435.98
2024-02-15T20:28:48.007Z,99430.69
2024-02-15T20:31:17.765Z,99430.20
2024-02-15T20:33:45.798Z,99426.05
2024-02-15T20:36:12.997Z,99418.00
2024-02-15T20:38:41.487Z,99418.31
2024-02-15T20:41:12.259Z,99416.41
2024-02-15T20:43:39.761Z,99412.48
2024-02-15T20:46:10.367Z,99405.23
2024-02-15T20:48:38.840Z,99401.29
2024-02-15T20:51:08.588Z,99400.06
2024-02-15T20:53:35.515Z,99397.23
2024-02-15T20:56:02.200Z,99398.64
2024-02-15T20:58:29.436Z,99401.41
2024-02-15T21:00:59.165Z,99400.14
2024-02-15T21:03:25.922Z,99400.27
2024-02-15T21:05:54.036Z,99400.44
2024-02-15T21:08:21.818Z,99397.48
2024-02-15T21:10:48.906Z,99395.08
2024-02-15T21:13:15.703Z,99391.81
2024-02-15T21:15:43.025Z,99393.78
2024-02-15T21:18:10.591Z,99393.07
2024-02-15T21:20:37.513Z,99389.13
2024-02-15T21:23:06.375Z,99385.91
2024-02-15T21:25:33.597Z,99387.73
2024-02-15T21:28:00.494Z,99388.92
2024-02-15T21:30:29.316Z,99397.48
2024-02-15T21:32:56.087Z,99403.23
2024-02-15T21:35:24.075Z,99405.80
2024-02-15T21:37:51.119Z,99404.88
2024-02-15T21:40:18.060Z,99405.58
2024-02-15T21:42:44.745Z,99404.46
2024-02-15T21:45:12.674Z,99398.66
2024-02-15T21:47:43.341Z,99393.50
2024-02-15T21:50:10.753Z,99395.08
2024-02-15T21:52:37.891Z,99390.23
2024-02-15T21:55:05.072Z,99386.57
2024-02-15T21:57:33.028Z,99384.28
2024-02-15T22:00:00.083Z,99382.66
2024-02-15T22:03:23.819Z,99385.78
2024-02-15T22:07:23.915Z,99388.28
2024-02-15T22:11:23.963Z,99392.90
2024-02-15T22:14:09.372Z,99395.08
2024-02-15T22:16:36.687Z,99395.07
2024-02-15T22:19:07.122Z,99391.34
2024-02-15T22:21:34.648Z,99392.59
2024-02-15T22:24:01.867Z,99394.64
2024-02-15T22:26:28.981Z,99399.58
2024-02-15T22:28:56.085Z,99398.30
2024-02-15T22:31:23.553Z,99397.30
2024-02-15T22:33:51.314Z,99397.36
2024-02-15T22:36:25.697Z,99397.49
2024-02-15T22:38:53.017Z,99395.35
2024-02-15T22:41:21.784Z,99391.53
2024-02-15T22:43:49.352Z,99389.92
2024-02-15T22:46:16.341Z,99385.50
2024-02-15T22:48:43.938Z,99381.48
2024-02-15T22:51:11.336Z,99381.63
2024-02-15T22:53:45.628Z,99383.85
2024-02-15T22:56:13.467Z,99385.21
2024-02-15T22:58:40.512Z,99384.65
2024-02-15T23:01:08.324Z,99381.44
2024-02-15T23:03:36.005Z,99383.19
2024-02-15T23:06:03.324Z,99386.14
2024-02-15T23:08:30.329Z,99391.10
2024-02-15T23:10:57.510Z,99386.58
2024-02-15T23:13:24.561Z,99386.17
2024-02-15T23:15:54.265Z,99384.20
2024-02-15T23:18:21.511Z,99381.17
2024-02-15T23:20:48.651Z,99381.98
2024-02-15T23:23:16.697Z,99381.02
2024-02-15T23:25:44.303Z,99378.55
2024-02-15T23:28:11.489Z,99376.73
2024-02-15T23:30:40.431Z,99372.11
2024-02-15T23:33:10.718Z,99365.34
2024-02-15T23:35:48.086Z,99363.44
2024-02-15T23:38:33.794Z,99360.98
2024-02-15T23:41:01.017Z,99353.84
2024-02-15T23:43:28.630Z,99351.91
2024-02-15T23:45:55.818Z,99352.35
2024-02-15T23:48:22.834Z,99351.92
2024-02-15T23:50:50.211Z,99348.70
2024-02-15T23:53:17.333Z,99345.48
2024-02-15T23:55:44.291Z,99343.38
2024-02-15T23:58:11.370Z,99344.08
